createdAt,value
2022-11-04T00:00:45.804Z,9.60
2022-11-04T00:03:15.557Z,9.60
2022-11-04T00:05:43.644Z,9.60
2022-11-04T00:08:26.831Z,9.50
2022-11-04T00:11:15.920Z,9.50
2022-11-04T00:13:44.542Z,9.50
2022-11-04T00:16:30.121Z,9.50
2022-11-04T00:19:00.739Z,9.50
2022-11-04T00:21:46.344Z,9.50
2022-11-04T00:24:44.968Z,9.40
2022-11-04T00:27:32.252Z,9.30
2022-11-04T00:30:00.482Z,9.30
2022-11-04T00:32:46.771Z,9.20
2022-11-04T00:35:16.304Z,9.10
2022-11-04T00:37:45.492Z,9.00
2022-11-04T00:40:15.437Z,9.10
2022-11-04T00:42:46.493Z,9.10
2022-11-04T00:45:14.709Z,9.10
2022-11-04T00:47:42.855Z,9.30
2022-11-04T00:50:11.180Z,9.30
2022-11-04T00:52:40.614Z,9.40
2022-11-04T00:55:09.448Z,9.40
2022-11-04T00:57:37.601Z,9.30
2022-11-04T01:00:06.898Z,9.30
2022-11-04T01:02:35.099Z,9.30
2022-11-04T01:05:03.672Z,9.20
2022-11-04T01:07:32.466Z,9.10
2022-11-04T01:10:01.933Z,9.10
2022-11-04T01:12:30.206Z,9.00
2022-11-04T01:14:58.272Z,9.20
2022-11-04T01:17:26.349Z,9.20
2022-11-04T01:19:54.557Z,9.10
2022-11-04T01:22:22.652Z,9.10
2022-11-04T01:24:50.761Z,9.20
2022-11-04T01:27:20.351Z,9.10
2022-11-04T01:29:48.476Z,9.00
2022-11-04T01:32:16.608Z,8.90
2022-11-04T01:34:44.749Z,8.80
2022-11-04T01:37:12.887Z,8.80
2022-11-04T01:39:40.978Z,8.80
2022-11-04T01:42:14.401Z,8.70
2022-11-04T01:44:52.703Z,8.70
2022-11-04T01:47:24.472Z,8.60
2022-11-04T01:49:55.978Z,8.60
2022-11-04T01:52:27.817Z,8.50
2022-11-04T01:54:58.612Z,8.40
2022-11-04T01:57:31.764Z,8.60
2022-11-04T02:00:05.316Z,8.70
2022-11-04T02:02:33.918Z,8.80
2022-11-04T02:05:02.092Z,8.70
2022-11-04T02:07:31.220Z,8.60
2022-11-04T02:09:59.686Z,8.60
2022-11-04T02:12:45.139Z,8.60
2022-11-04T02:15:14.943Z,8.70
2022-11-04T02:18:03.355Z,8.70
2022-11-04T02:20:51.904Z,8.60
2022-11-04T02:23:45.256Z,8.70
2022-11-04T02:26:50.448Z,8.80
2022-11-04T02:29:28.749Z,8.80
2022-11-04T02:32:06.839Z,8.70
2022-11-04T02:34:41.924Z,8.80
2022-11-04T02:37:17.541Z,8.80
2022-11-04T02:39:53.949Z,8.80
2022-11-04T02:42:29.045Z,8.90
2022-11-04T02:45:11.975Z,9.00
2022-11-04T02:47:46.329Z,8.90
2022-11-04T02:50:19.867Z,8.90
2022-11-04T02:52:55.812Z,9.00
2022-11-04T02:55:28.166Z,9.00
2022-11-04T02:57:59.204Z,8.90
2022-11-04T03:00:30.253Z,8.90
2022-11-04T03:03:03.728Z,8.80
2022-11-04T03:05:35.516Z,8.70
2022-11-04T03:08:07.918Z,8.60
2022-11-04T03:10:38.884Z,8.60
2022-11-04T03:13:13.434Z,8.60
2022-11-04T03:15:49.936Z,8.50
2022-11-04T03:18:25.216Z,8.40
2022-11-04T03:20:55.647Z,8.40
2022-11-04T03:23:24.085Z,8.40
2022-11-04T03:25:57.359Z,8.40
2022-11-04T03:28:35.407Z,8.50
2022-11-04T03:31:07.844Z,8.40
2022-11-04T03:33:41.893Z,8.30
2022-11-04T03:36:10.324Z,8.30
2022-11-04T03:38:39.436Z,8.30
2022-11-04T03:41:14.958Z,8.10
2022-11-04T03:43:43.573Z,8.10
2022-11-04T03:46:13.636Z,8.10
2022-11-04T03:48:45.054Z,8.00
2022-11-04T03:51:13.621Z,8.00
2022-11-04T03:53:42.603Z,8.10
2022-11-04T03:56:51.560Z,8.10
2022-11-04T03:59:39.238Z,8.20
2022-11-04T04:02:18.007Z,8.00
2022-11-04T04:04:54.902Z,8.00
2022-11-04T04:07:30.631Z,8.10
2022-11-04T04:10:25.723Z,8.20
2022-11-04T04:12:58.956Z,8.20
2022-11-04T04:15:31.924Z,8.40
2022-11-04T04:18:04.969Z,8.40
2022-11-04T04:20:36.638Z,8.30
2022-11-04T04:23:28.646Z,8.20
2022-11-04T04:26:19.064Z,8.20
2022-11-04T04:28:48.002Z,8.30
2022-11-04T04:31:38.347Z,8.30
2022-11-04T04:34:08.441Z,8.30
2022-11-04T04:36:43.281Z,8.30
2022-11-04T04:39:30.698Z,8.20
2022-11-04T04:42:17.211Z,8.20
2022-11-04T04:45:00.801Z,8.20
2022-11-04T04:47:33.627Z,8.10
2022-11-04T04:50:03.776Z,8.20
2022-11-04T04:52:34.062Z,8.10
2022-11-04T04:55:02.347Z,8.00
2022-11-04T04:57:30.608Z,7.90
2022-11-04T04:59:58.756Z,7.90
2022-11-04T05:02:27.146Z,7.90
2022-11-04T05:04:56.403Z,7.80
2022-11-04T05:07:26.196Z,7.80
2022-11-04T05:09:54.280Z,7.90
2022-11-04T05:12:22.999Z,8.00
2022-11-04T05:14:51.079Z,8.00
2022-11-04T05:17:19.163Z,8.00
2022-11-04T05:19:47.302Z,8.10
2022-11-04T05:22:15.446Z,8.20
2022-11-04T05:24:44.932Z,8.10
2022-11-04T05:27:13.238Z,8.10
2022-11-04T05:29:41.320Z,8.10
2022-11-04T05:32:09.416Z,8.10
2022-11-04T05:34:38.016Z,8.10
2022-11-04T05:37:06.085Z,8.00
2022-11-04T05:39:34.172Z,8.10
2022-11-04T05:42:03.968Z,8.10
2022-11-04T05:44:32.065Z,8.00
2022-11-04T05:47:00.144Z,8.10
2022-11-04T05:49:28.349Z,8.00
2022-11-04T05:51:56.441Z,8.00
2022-11-04T05:54:24.673Z,8.00
2022-11-04T05:56:52.827Z,8.00
2022-11-04T05:59:22.292Z,8.00
2022-11-04T06:01:50.535Z,8.00
2022-11-04T06:04:20.296Z,8.00
2022-11-04T06:06:48.469Z,8.00
2022-11-04T06:09:16.659Z,8.00
2022-11-04T06:11:45.412Z,8.00
2022-11-04T06:14:18.628Z,8.00
2022-11-04T06:16:48.928Z,8.10
2022-11-04T06:19:17.014Z,8.10
2022-11-04T06:21:45.101Z,8.10
2022-11-04T06:24:13.343Z,8.10
2022-11-04T06:26:41.416Z,8.10
2022-11-04T06:29:10.144Z,8.00
2022-11-04T06:31:38.418Z,8.10
2022-11-04T06:34:07.847Z,8.00
2022-11-04T06:36:36.378Z,7.90
2022-11-04T06:39:05.552Z,7.90
2022-11-04T06:41:33.782Z,7.90
2022-11-04T06:44:01.926Z,7.90
2022-11-04T06:46:34.978Z,7.90
2022-11-04T06:49:03.419Z,7.90
2022-11-04T06:51:33.787Z,7.80
2022-11-04T06:54:02.118Z,7.70
2022-11-04T06:56:30.234Z,7.70
2022-11-04T06:58:59.019Z,7.70
2022-11-04T07:01:29.616Z,7.70
2022-11-04T07:03:59.635Z,7.80
2022-11-04T07:06:29.279Z,7.80
2022-11-04T07:09:01.582Z,7.70
2022-11-04T07:11:33.031Z,7.80
2022-11-04T07:14:01.422Z,7.90
2022-11-04T07:16:29.516Z,7.90
2022-11-04T07:18:58.294Z,8.00
2022-11-04T07:21:26.511Z,8.00
2022-11-04T07:23:54.619Z,8.00
2022-11-04T07:26:24.591Z,8.00
2022-11-04T07:28:52.679Z,8.00
2022-11-04T07:31:22.284Z,8.00
2022-11-04T07:33:51.542Z,8.00
2022-11-04T07:36:20.585Z,8.00
2022-11-04T07:38:49.300Z,8.00
2022-11-04T07:41:18.272Z,8.10
2022-11-04T07:43:51.364Z,8.10
2022-11-04T07:46:20.858Z,8.10
2022-11-04T07:48:49.195Z,8.10
2022-11-04T07:51:20.148Z,8.20
2022-11-04T07:53:48.787Z,8.30
2022-11-04T07:56:16.973Z,8.30
2022-11-04T07:58:45.061Z,8.40
2022-11-04T08:01:17.293Z,8.40
2022-11-04T08:03:45.532Z,8.60
2022-11-04T08:06:15.957Z,8.70
2022-11-04T08:08:44.548Z,8.80
2022-11-04T08:11:17.709Z,8.90
2022-11-04T08:13:47.536Z,9.00
2022-11-04T08:16:20.108Z,9.00
2022-11-04T08:18:49.920Z,9.10
2022-11-04T08:21:18.492Z,9.20
2022-11-04T08:23:48.149Z,9.20
2022-11-04T08:26:18.860Z,9.30
2022-11-04T08:28:47.728Z,9.40
2022-11-04T08:31:18.464Z,9.50
2022-11-04T08:33:47.170Z,9.60
2022-11-04T08:36:18.040Z,9.70
2022-11-04T08:38:46.561Z,9.80
2022-11-04T08:41:16.715Z,9.80
2022-11-04T08:43:44.843Z,9.90
2022-11-04T08:46:14.013Z,10.00
2022-11-04T08:48:44.167Z,10.20
2022-11-04T08:51:17.967Z,10.30
2022-11-04T08:53:46.062Z,10.40
2022-11-04T08:56:17.544Z,10.50
2022-11-04T08:58:46.149Z,10.60
2022-11-04T09:01:14.367Z,10.70
2022-11-04T09:03:44.184Z,10.70
2022-11-04T09:06:15.124Z,10.80
2022-11-04T09:08:43.533Z,10.70
2022-11-04T09:11:13.902Z,10.80
2022-11-04T09:13:42.736Z,11.30
2022-11-04T09:16:13.016Z,11.40
2022-11-04T09:18:41.400Z,11.30
2022-11-04T09:21:12.001Z,11.20
2022-11-04T09:23:40.477Z,11.10
2022-11-04T09:26:10.968Z,11.10
2022-11-04T09:28:40.433Z,11.10
2022-11-04T09:31:09.955Z,11.10
2022-11-04T09:33:38.330Z,11.70
2022-11-04T09:36:08.428Z,12.90
2022-11-04T09:38:38.365Z,13.60
2022-11-04T09:41:20.283Z,13.70
2022-11-04T09:43:56.174Z,13.70
2022-11-04T09:46:25.115Z,12.90
2022-11-04T09:48:56.265Z,12.70
2022-11-04T09:51:52.626Z,13.50
2022-11-04T09:54:23.113Z,14.00
2022-11-04T09:56:53.219Z,13.60
2022-11-04T09:59:28.239Z,13.20
2022-11-04T10:02:26.289Z,12.80
2022-11-04T10:05:06.035Z,12.50
2022-11-04T10:07:50.872Z,12.70
2022-11-04T10:10:26.330Z,13.20
2022-11-04T10:13:16.169Z,14.20
2022-11-04T10:16:10.944Z,14.10
2022-11-04T10:18:55.972Z,13.80
2022-11-04T10:21:33.471Z,12.90
2022-11-04T10:24:13.528Z,12.50
2022-11-04T10:26:47.139Z,12.30
2022-11-04T10:29:18.005Z,12.10
2022-11-04T10:31:48.907Z,12.10
2022-11-04T10:34:29.795Z,12.00
2022-11-04T10:36:58.919Z,11.80
2022-11-04T10:39:32.249Z,11.80
2022-11-04T10:42:04.595Z,11.80
2022-11-04T10:44:35.255Z,11.70
2022-11-04T10:47:11.592Z,11.60
2022-11-04T10:52:50.724Z,11.50
2022-11-04T10:55:32.055Z,11.40
2022-11-04T10:58:02.837Z,11.40
2022-11-04T11:00:38.449Z,11.30
2022-11-04T11:03:25.157Z,11.30
2022-11-04T11:05:53.876Z,11.20
2022-11-04T11:08:31.291Z,11.10
2022-11-04T11:10:59.404Z,11.10
2022-11-04T11:13:36.040Z,11.10
2022-11-04T11:16:10.360Z,11.10
2022-11-04T11:18:39.714Z,11.10
2022-11-04T11:21:11.387Z,11.10
2022-11-04T11:23:45.331Z,11.20
2022-11-04T11:26:15.410Z,11.10
2022-11-04T11:28:55.773Z,11.10
2022-11-04T11:31:26.920Z,11.00
2022-11-04T11:33:58.990Z,11.00
2022-11-04T11:36:29.661Z,11.00
2022-11-04T11:39:05.675Z,11.00
2022-11-04T11:41:40.970Z,11.00
2022-11-04T11:44:26.141Z,11.00
2022-11-04T11:46:56.623Z,11.00
2022-11-04T11:49:29.020Z,11.00
2022-11-04T11:51:57.976Z,11.00
2022-11-04T11:54:34.568Z,11.00
2022-11-04T11:57:14.657Z,11.00
2022-11-04T12:02:47.009Z,10.90
2022-11-04T12:11:17.281Z,11.00
2022-11-04T12:13:50.463Z,11.00
2022-11-04T12:16:34.255Z,11.00
2022-11-04T12:19:42.087Z,11.00
2022-11-04T12:22:20.372Z,11.00
2022-11-04T12:24:56.514Z,10.90
2022-11-04T12:27:34.284Z,10.90
2022-11-04T12:30:07.893Z,10.90
2022-11-04T12:32:48.342Z,10.90
2022-11-04T12:35:38.213Z,11.00
2022-11-04T12:38:30.036Z,11.10
2022-11-04T12:44:02.935Z,11.10
2022-11-04T12:46:38.864Z,11.00
2022-11-04T12:49:38.393Z,11.00
2022-11-04T12:52:19.619Z,11.00
2022-11-04T12:54:57.956Z,10.90
2022-11-04T12:57:37.836Z,10.90
2022-11-04T13:00:12.561Z,10.90
2022-11-04T13:02:46.078Z,10.80
2022-11-04T13:05:32.387Z,10.70
2022-11-04T13:08:12.967Z,10.70
2022-11-04T13:10:49.253Z,10.70
2022-11-04T13:13:22.265Z,10.70
2022-11-04T13:15:55.185Z,10.70
2022-11-04T13:18:27.049Z,10.70
2022-11-04T13:21:02.795Z,10.70
2022-11-04T13:23:38.944Z,10.70
2022-11-04T13:26:12.003Z,10.70
2022-11-04T13:28:42.051Z,10.60
2022-11-04T13:31:16.460Z,10.50
2022-11-04T13:33:53.028Z,10.50
2022-11-04T13:36:36.060Z,10.40
2022-11-04T13:39:14.053Z,10.40
2022-11-04T13:42:06.850Z,10.40
2022-11-04T13:44:40.532Z,10.30
2022-11-04T13:47:22.027Z,10.30
2022-11-04T13:49:52.228Z,10.20
2022-11-04T13:52:22.833Z,10.10
2022-11-04T13:54:57.295Z,10.10
2022-11-04T13:57:27.176Z,10.00
2022-11-04T14:00:22.526Z,10.00
2022-11-04T14:02:51.762Z,9.90
2022-11-04T14:06:04.106Z,9.90
2022-11-04T14:08:35.530Z,9.80
2022-11-04T14:11:07.654Z,9.80
2022-11-04T14:13:46.279Z,9.70
2022-11-04T14:16:44.318Z,9.70
2022-11-04T14:19:57.869Z,9.60
2022-11-04T14:22:33.616Z,9.60
2022-11-04T14:25:18.831Z,9.60
2022-11-04T14:27:50.032Z,9.50
2022-11-04T14:30:43.825Z,9.50
2022-11-04T14:33:32.798Z,9.50
2022-11-04T14:36:17.239Z,9.50
2022-11-04T14:38:53.436Z,9.40
2022-11-04T14:41:31.670Z,9.40
2022-11-04T14:44:02.994Z,9.30
2022-11-04T14:46:35.464Z,9.30
2022-11-04T14:49:05.109Z,9.30
2022-11-04T14:51:40.807Z,9.30
2022-11-04T14:54:16.307Z,9.20
2022-11-04T14:56:46.879Z,9.20
2022-11-04T14:59:23.441Z,9.20
2022-11-04T15:01:53.004Z,9.10
2022-11-04T15:04:26.857Z,9.10
2022-11-04T15:06:56.296Z,9.20
2022-11-04T15:09:27.948Z,9.10
2022-11-04T15:12:25.323Z,9.10
2022-11-04T15:14:53.566Z,9.10
2022-11-04T15:17:23.743Z,9.00
2022-11-04T15:19:54.545Z,9.00
2022-11-04T15:22:23.721Z,9.00
2022-11-04T15:24:52.511Z,9.00
2022-11-04T15:27:29.182Z,9.00
2022-11-04T15:29:59.624Z,8.90
2022-11-04T15:32:28.870Z,8.90
2022-11-04T15:34:57.990Z,8.80
2022-11-04T15:37:28.994Z,8.80
2022-11-04T15:39:59.499Z,8.90
2022-11-04T15:42:44.692Z,8.80
2022-11-04T15:45:30.283Z,8.80
2022-11-04T15:48:27.606Z,8.80
2022-11-04T15:51:20.189Z,8.80
2022-11-04T15:53:52.115Z,8.80
2022-11-04T15:56:23.623Z,8.80
2022-11-04T15:58:54.741Z,8.80
2022-11-04T16:01:23.693Z,8.80
2022-11-04T16:03:54.387Z,8.80
2022-11-04T16:06:37.476Z,8.80
2022-11-04T16:09:19.239Z,8.70
2022-11-04T16:12:06.581Z,8.70
2022-11-04T16:14:36.097Z,8.70
2022-11-04T16:17:04.561Z,8.70
2022-11-04T16:19:33.504Z,8.70
2022-11-04T16:22:05.581Z,8.70
2022-11-04T16:24:36.045Z,8.70
2022-11-04T16:27:05.960Z,8.60
2022-11-04T16:29:40.665Z,8.60
2022-11-04T16:32:19.838Z,8.60
2022-11-04T16:34:53.672Z,8.60
2022-11-04T16:37:21.789Z,8.60
2022-11-04T16:39:50.625Z,8.60
2022-11-04T16:42:18.963Z,8.50
2022-11-04T16:44:50.527Z,8.50
2022-11-04T16:47:19.814Z,8.40
2022-11-04T16:49:48.339Z,8.40
2022-11-04T16:52:22.952Z,8.40
2022-11-04T16:54:51.155Z,8.40
2022-11-04T16:57:19.303Z,8.40
2022-11-04T16:59:48.727Z,8.30
2022-11-04T17:02:22.399Z,8.30
2022-11-04T17:04:50.553Z,8.30
2022-11-04T17:07:19.079Z,8.20
2022-11-04T17:09:47.268Z,8.20
2022-11-04T17:12:15.343Z,8.20
2022-11-04T17:14:44.008Z,8.20
2022-11-04T17:17:13.576Z,8.20
2022-11-04T17:19:41.672Z,8.20
2022-11-04T17:22:12.272Z,8.20
2022-11-04T17:24:40.380Z,8.10
2022-11-04T17:27:08.884Z,8.10
2022-11-04T17:29:37.500Z,8.20
2022-11-04T17:32:05.857Z,8.20
2022-11-04T17:34:35.404Z,8.20
2022-11-04T17:37:03.704Z,8.20
2022-11-04T17:39:31.797Z,8.20
2022-11-04T17:42:17.244Z,8.20
2022-11-04T17:44:45.316Z,8.20
2022-11-04T17:47:13.511Z,8.10
2022-11-04T17:49:42.991Z,8.10
2022-11-04T17:52:11.044Z,8.10
2022-11-04T17:54:39.531Z,8.10
2022-11-04T17:57:07.801Z,8.10
2022-11-04T17:59:37.057Z,8.10
2022-11-04T18:02:05.489Z,8.10
2022-11-04T18:04:33.785Z,8.00
2022-11-04T18:07:03.997Z,8.10
2022-11-04T18:09:32.777Z,8.10
2022-11-04T18:12:18.501Z,8.10
2022-11-04T18:14:46.653Z,8.10
2022-11-04T18:17:14.729Z,8.10
2022-11-04T18:19:43.476Z,8.10
2022-11-04T18:22:13.333Z,8.10
2022-11-04T18:24:41.930Z,8.10
2022-11-04T18:27:10.618Z,8.20
2022-11-04T18:29:39.077Z,8.20
2022-11-04T18:32:07.521Z,8.20
2022-11-04T18:34:35.776Z,8.20
2022-11-04T18:37:04.197Z,8.20
2022-11-04T18:39:33.676Z,8.20
2022-11-04T18:42:01.797Z,8.20
2022-11-04T18:44:30.318Z,8.30
2022-11-04T18:46:58.431Z,8.30
2022-11-04T18:49:26.881Z,8.20
2022-11-04T18:51:55.465Z,8.20
2022-11-04T18:54:23.580Z,8.20
2022-11-04T18:56:52.994Z,8.20
2022-11-04T18:59:21.719Z,8.30
2022-11-04T19:01:51.317Z,8.30
2022-11-04T19:04:19.643Z,8.30
2022-11-04T19:06:48.390Z,8.20
2022-11-04T19:12:25.332Z,8.30
2022-11-04T19:14:53.514Z,8.20
2022-11-04T19:17:22.353Z,8.20
2022-11-04T19:19:51.471Z,8.20
2022-11-04T19:22:19.558Z,8.20
2022-11-04T19:24:48.020Z,8.20
2022-11-04T19:27:19.660Z,8.20
2022-11-04T19:29:47.773Z,8.20
2022-11-04T19:32:16.021Z,8.20
2022-11-04T19:34:44.761Z,8.30
2022-11-04T19:37:12.999Z,8.30
2022-11-04T19:39:41.442Z,8.30
2022-11-04T19:42:28.340Z,8.20
2022-11-04T19:44:57.999Z,8.20
2022-11-04T19:47:26.160Z,8.20
2022-11-04T19:49:55.469Z,8.30
2022-11-04T19:52:24.007Z,8.30
2022-11-04T19:54:52.304Z,8.30
2022-11-04T19:57:20.379Z,8.30
2022-11-04T19:59:51.107Z,8.40
2022-11-04T20:02:20.818Z,8.30
2022-11-04T20:04:50.138Z,8.40
2022-11-04T20:07:18.778Z,8.40
2022-11-04T20:09:46.869Z,8.50
2022-11-04T20:12:32.489Z,8.50
2022-11-04T20:15:01.199Z,8.40
2022-11-04T20:17:32.416Z,8.50
2022-11-04T20:20:00.483Z,8.60
2022-11-04T20:22:28.845Z,8.60
2022-11-04T20:24:57.261Z,8.60
2022-11-04T20:27:25.418Z,8.60
2022-11-04T20:29:53.681Z,8.60
2022-11-04T20:32:21.915Z,8.70
2022-11-04T20:34:51.380Z,8.70
2022-11-04T20:37:19.961Z,8.70
2022-11-04T20:39:48.853Z,8.70
2022-11-04T20:42:16.986Z,8.90
2022-11-04T20:44:45.596Z,9.00
2022-11-04T20:47:13.846Z,9.10
2022-11-04T20:49:41.948Z,9.00
2022-11-04T20:52:11.490Z,9.20
2022-11-04T20:54:39.677Z,9.30
2022-11-04T20:57:07.899Z,9.40
2022-11-04T20:59:36.454Z,9.50
2022-11-04T21:02:04.858Z,9.50
2022-11-04T21:04:36.204Z,9.50
2022-11-04T21:07:06.905Z,9.50
2022-11-04T21:09:36.373Z,9.50
2022-11-04T21:12:04.795Z,9.50
2022-11-04T21:14:35.213Z,9.50
2022-11-04T21:17:03.750Z,9.50
2022-11-04T21:19:31.943Z,9.50
2022-11-04T21:22:00.145Z,9.40
2022-11-04T21:24:28.239Z,9.50
2022-11-04T21:26:58.775Z,9.50
2022-11-04T21:29:27.405Z,9.50
2022-11-04T21:31:55.464Z,9.50
2022-11-04T21:34:23.863Z,9.50
2022-11-04T21:36:53.213Z,9.60
2022-11-04T21:39:21.371Z,9.60
2022-11-04T21:41:49.640Z,9.60
2022-11-04T21:44:19.211Z,9.60
2022-11-04T21:46:48.446Z,9.60
2022-11-04T21:49:16.948Z,9.60
2022-11-04T21:51:45.508Z,9.60
2022-11-04T21:54:13.584Z,9.70
2022-11-04T21:56:41.751Z,9.70
2022-11-04T21:59:17.933Z,9.70
2022-11-04T22:01:48.005Z,9.70
2022-11-04T22:04:16.268Z,9.70
2022-11-04T22:06:45.485Z,9.60
2022-11-04T22:09:13.814Z,9.60
2022-11-04T22:11:42.312Z,9.60
2022-11-04T22:14:13.608Z,9.70
2022-11-04T22:16:41.788Z,9.70
2022-11-04T22:19:14.489Z,9.70
2022-11-04T22:21:44.589Z,9.70
2022-11-04T22:24:13.649Z,9.70
2022-11-04T22:26:41.911Z,9.70
2022-11-04T22:29:10.592Z,9.70
2022-11-04T22:31:41.791Z,9.60
2022-11-04T22:34:11.441Z,9.60
2022-11-04T22:36:39.841Z,9.60
2022-11-04T22:39:11.937Z,9.50
2022-11-04T22:41:42.424Z,9.50
2022-11-04T22:44:10.512Z,9.40
2022-11-04T22:46:38.627Z,9.40
2022-11-04T22:49:07.971Z,9.40
2022-11-04T22:51:37.483Z,9.40
2022-11-04T22:54:08.490Z,9.30
2022-11-04T22:56:37.288Z,9.30
2022-11-04T22:59:05.734Z,9.30
2022-11-04T23:01:34.294Z,9.30
2022-11-04T23:04:03.052Z,9.20
2022-11-04T23:06:31.402Z,9.20
2022-11-04T23:09:01.335Z,9.20
2022-11-04T23:11:47.968Z,9.10
2022-11-04T23:14:35.823Z,9.10
2022-11-04T23:17:29.507Z,9.00
2022-11-04T23:19:57.604Z,9.00
2022-11-04T23:22:43.512Z,9.00
2022-11-04T23:25:13.820Z,9.00
2022-11-04T23:28:03.208Z,9.00
2022-11-04T23:30:33.376Z,9.10
2022-11-04T23:33:03.668Z,9.20
2022-11-04T23:35:50.712Z,9.20
2022-11-04T23:38:19.269Z,9.10
2022-11-04T23:41:04.324Z,9.20
2022-11-04T23:43:32.745Z,9.20
2022-11-04T23:46:18.152Z,9.20
2022-11-04T23:49:04.313Z,9.30
2022-11-04T23:51:49.944Z,9.20
2022-11-04T23:54:35.341Z,9.40
2022-11-04T23:57:22.703Z,9.30
